sensor_id;sensor_type;location;lat;lon;timestamp;P1;durP1;ratioP1;P2;durP2;ratioP2
78891;SDS011;68368;51.728;5.248;2023-04-19T00:01:11;14.10;;;10.60;;
78891;SDS011;68368;51.728;5.248;2023-04-19T00:03:15;17.10;;;11.00;;
78891;SDS011;68368;51.728;5.248;2023-04-19T00:05:20;14.50;;;9.90;;
78891;SDS011;68368;51.728;5.248;2023-04-19T00:07:24;13.20;;;9.10;;
78891;SDS011;68368;51.728;5.248;2023-04-19T00:09:29;14.20;;;10.00;;
78891;SDS011;68368;51.728;5.248;2023-04-19T00:11:35;15.00;;;10.10;;
78891;SDS011;68368;51.728;5.248;2023-04-19T00:13:38;15.20;;;10.40;;
78891;SDS011;68368;51.728;5.248;2023-04-19T00:15:43;14.60;;;10.60;;
78891;SDS011;68368;51.728;5.248;2023-04-19T00:17:46;15.40;;;10.00;;
78891;SDS011;68368;51.728;5.248;2023-04-19T00:19:50;15.50;;;10.50;;
78891;SDS011;68368;51.728;5.248;2023-04-19T00:21:53;13.20;;;9.40;;
78891;SDS011;68368;51.728;5.248;2023-04-19T00:23:57;13.70;;;10.10;;
78891;SDS011;68368;51.728;5.248;2023-04-19T00:26:02;16.60;;;10.20;;
78891;SDS011;68368;51.728;5.248;2023-04-19T00:28:06;14.30;;;10.30;;
78891;SDS011;68368;51.728;5.248;2023-04-19T00:30:14;13.30;;;9.20;;
78891;SDS011;68368;51.728;5.248;2023-04-19T00:32:18;15.20;;;9.90;;
78891;SDS011;68368;51.728;5.248;2023-04-19T00:34:23;12.70;;;9.50;;
78891;SDS011;68368;51.728;5.248;2023-04-19T00:36:26;12.90;;;9.50;;
78891;SDS011;68368;51.728;5.248;2023-04-19T00:38:37;13.40;;;9.00;;
78891;SDS011;68368;51.728;5.248;2023-04-19T00:40:41;12.80;;;9.70;;
78891;SDS011;68368;51.728;5.248;2023-04-19T00:42:45;13.30;;;9.80;;
78891;SDS011;68368;51.728;5.248;2023-04-19T00:44:48;15.00;;;9.20;;
78891;SDS011;68368;51.728;5.248;2023-04-19T00:46:51;16.30;;;8.80;;
78891;SDS011;68368;51.728;5.248;2023-04-19T00:48:58;13.50;;;9.20;;
78891;SDS011;68368;51.728;5.248;2023-04-19T00:51:02;13.90;;;9.40;;
78891;SDS011;68368;51.728;5.248;2023-04-19T00:53:06;13.10;;;8.20;;
78891;SDS011;68368;51.728;5.248;2023-04-19T00:55:11;14.60;;;9.90;;
78891;SDS011;68368;51.728;5.248;2023-04-19T00:57:15;11.60;;;8.50;;
78891;SDS011;68368;51.728;5.248;2023-04-19T00:59:19;11.40;;;8.60;;
78891;SDS011;68368;51.728;5.248;2023-04-19T01:01:25;12.50;;;8.60;;
78891;SDS011;68368;51.728;5.248;2023-04-19T01:03:28;12.60;;;8.50;;
78891;SDS011;68368;51.728;5.248;2023-04-19T01:05:34;13.60;;;8.90;;
78891;SDS011;68368;51.728;5.248;2023-04-19T01:07:37;14.30;;;9.60;;
78891;SDS011;68368;51.728;5.248;2023-04-19T01:09:41;14.40;;;9.10;;
78891;SDS011;68368;51.728;5.248;2023-04-19T01:11:45;13.20;;;9.40;;
78891;SDS011;68368;51.728;5.248;2023-04-19T01:13:49;13.70;;;9.30;;
78891;SDS011;68368;51.728;5.248;2023-04-19T01:15:55;13.80;;;9.30;;
78891;SDS011;68368;51.728;5.248;2023-04-19T01:17:59;13.40;;;8.90;;
78891;SDS011;68368;51.728;5.248;2023-04-19T01:20:03;13.60;;;8.30;;
78891;SDS011;68368;51.728;5.248;2023-04-19T01:24:17;13.80;;;9.20;;
78891;SDS011;68368;51.728;5.248;2023-04-19T01:26:22;12.80;;;9.20;;
78891;SDS011;68368;51.728;5.248;2023-04-19T01:28:25;13.70;;;9.80;;
78891;SDS011;68368;51.728;5.248;2023-04-19T01:30:29;12.60;;;9.60;;
78891;SDS011;68368;51.728;5.248;2023-04-19T01:32:32;12.20;;;8.80;;
78891;SDS011;68368;51.728;5.248;2023-04-19T01:34:36;13.00;;;9.30;;
78891;SDS011;68368;51.728;5.248;2023-04-19T01:36:40;14.60;;;9.20;;
78891;SDS011;68368;51.728;5.248;2023-04-19T01:38:44;15.00;;;8.90;;
78891;SDS011;68368;51.728;5.248;2023-04-19T01:40:47;14.40;;;9.90;;
78891;SDS011;68368;51.728;5.248;2023-04-19T01:42:52;17.30;;;9.80;;
78891;SDS011;68368;51.728;5.248;2023-04-19T01:44:59;17.60;;;10.20;;
78891;SDS011;68368;51.728;5.248;2023-04-19T01:47:02;15.40;;;10.30;;
78891;SDS011;68368;51.728;5.248;2023-04-19T01:49:11;17.20;;;10.80;;
78891;SDS011;68368;51.728;5.248;2023-04-19T01:51:15;14.30;;;10.50;;
78891;SDS011;68368;51.728;5.248;2023-04-19T01:53:19;14.80;;;9.80;;
78891;SDS011;68368;51.728;5.248;2023-04-19T01:55:22;14.90;;;10.10;;
78891;SDS011;68368;51.728;5.248;2023-04-19T01:57:25;17.10;;;11.20;;
78891;SDS011;68368;51.728;5.248;2023-04-19T01:59:29;15.00;;;9.80;;
78891;SDS011;68368;51.728;5.248;2023-04-19T02:01:48;16.30;;;11.00;;
78891;SDS011;68368;51.728;5.248;2023-04-19T02:03:52;15.80;;;10.60;;
78891;SDS011;68368;51.728;5.248;2023-04-19T02:05:56;14.50;;;9.60;;
78891;SDS011;68368;51.728;5.248;2023-04-19T02:08:04;15.90;;;10.40;;
78891;SDS011;68368;51.728;5.248;2023-04-19T02:10:09;13.80;;;10.10;;
78891;SDS011;68368;51.728;5.248;2023-04-19T02:12:18;15.40;;;10.40;;
78891;SDS011;68368;51.728;5.248;2023-04-19T02:14:22;14.20;;;9.60;;
78891;SDS011;68368;51.728;5.248;2023-04-19T02:16:27;14.50;;;9.80;;
78891;SDS011;68368;51.728;5.248;2023-04-19T02:18:31;13.50;;;10.00;;
78891;SDS011;68368;51.728;5.248;2023-04-19T02:20:37;13.20;;;8.60;;
78891;SDS011;68368;51.728;5.248;2023-04-19T02:22:41;13.80;;;9.00;;
78891;SDS011;68368;51.728;5.248;2023-04-19T02:24:44;11.70;;;8.50;;
78891;SDS011;68368;51.728;5.248;2023-04-19T02:26:48;16.00;;;10.20;;
78891;SDS011;68368;51.728;5.248;2023-04-19T02:28:53;13.70;;;9.80;;
78891;SDS011;68368;51.728;5.248;2023-04-19T02:30:56;13.50;;;9.80;;
78891;SDS011;68368;51.728;5.248;2023-04-19T02:32:59;14.70;;;9.40;;
78891;SDS011;68368;51.728;5.248;2023-04-19T02:35:05;13.60;;;9.20;;
78891;SDS011;68368;51.728;5.248;2023-04-19T02:37:09;13.60;;;9.00;;
78891;SDS011;68368;51.728;5.248;2023-04-19T02:39:13;13.80;;;9.60;;
78891;SDS011;68368;51.728;5.248;2023-04-19T02:41:19;13.30;;;9.60;;
78891;SDS011;68368;51.728;5.248;2023-04-19T02:43:24;14.30;;;9.80;;
78891;SDS011;68368;51.728;5.248;2023-04-19T02:45:27;15.60;;;9.60;;
78891;SDS011;68368;51.728;5.248;2023-04-19T02:47:31;14.80;;;10.20;;
78891;SDS011;68368;51.728;5.248;2023-04-19T02:49:34;13.60;;;9.10;;
78891;SDS011;68368;51.728;5.248;2023-04-19T02:51:40;12.40;;;8.90;;
78891;SDS011;68368;51.728;5.248;2023-04-19T02:53:45;16.20;;;10.10;;
78891;SDS011;68368;51.728;5.248;2023-04-19T02:55:48;14.80;;;10.30;;
78891;SDS011;68368;51.728;5.248;2023-04-19T02:57:51;13.20;;;9.60;;
78891;SDS011;68368;51.728;5.248;2023-04-19T02:59:55;14.50;;;9.20;;
78891;SDS011;68368;51.728;5.248;2023-04-19T03:01:59;14.40;;;9.40;;
78891;SDS011;68368;51.728;5.248;2023-04-19T03:04:02;13.80;;;9.20;;
78891;SDS011;68368;51.728;5.248;2023-04-19T03:06:13;14.80;;;9.90;;
78891;SDS011;68368;51.728;5.248;2023-04-19T03:08:17;13.20;;;9.30;;
78891;SDS011;68368;51.728;5.248;2023-04-19T03:10:21;15.50;;;9.80;;
78891;SDS011;68368;51.728;5.248;2023-04-19T03:12:24;15.20;;;9.90;;
78891;SDS011;68368;51.728;5.248;2023-04-19T03:14:28;15.20;;;9.20;;
78891;SDS011;68368;51.728;5.248;2023-04-19T03:16:32;13.50;;;8.80;;
78891;SDS011;68368;51.728;5.248;2023-04-19T03:18:39;12.90;;;9.40;;
78891;SDS011;68368;51.728;5.248;2023-04-19T03:20:42;14.80;;;9.20;;
78891;SDS011;68368;51.728;5.248;2023-04-19T03:22:45;14.60;;;9.80;;
78891;SDS011;68368;51.728;5.248;2023-04-19T03:24:54;13.40;;;9.50;;
78891;SDS011;68368;51.728;5.248;2023-04-19T03:27:01;12.00;;;8.40;;
78891;SDS011;68368;51.728;5.248;2023-04-19T03:29:04;14.90;;;9.00;;
78891;SDS011;68368;51.728;5.248;2023-04-19T03:31:07;13.70;;;9.20;;
78891;SDS011;68368;51.728;5.248;2023-04-19T03:33:11;13.60;;;8.20;;
78891;SDS011;68368;51.728;5.248;2023-04-19T03:35:15;14.60;;;8.80;;
78891;SDS011;68368;51.728;5.248;2023-04-19T03:37:18;14.40;;;9.00;;
78891;SDS011;68368;51.728;5.248;2023-04-19T03:39:21;13.00;;;8.70;;
78891;SDS011;68368;51.728;5.248;2023-04-19T03:41:25;17.20;;;9.40;;
78891;SDS011;68368;51.728;5.248;2023-04-19T03:43:29;12.00;;;9.10;;
78891;SDS011;68368;51.728;5.248;2023-04-19T03:45:33;12.60;;;8.70;;
78891;SDS011;68368;51.728;5.248;2023-04-19T03:47:36;12.40;;;7.90;;
78891;SDS011;68368;51.728;5.248;2023-04-19T03:49:40;14.80;;;8.60;;
78891;SDS011;68368;51.728;5.248;2023-04-19T03:51:44;13.30;;;9.00;;
78891;SDS011;68368;51.728;5.248;2023-04-19T03:53:48;13.90;;;9.30;;
78891;SDS011;68368;51.728;5.248;2023-04-19T03:55:52;12.40;;;9.10;;
78891;SDS011;68368;51.728;5.248;2023-04-19T03:57:57;11.60;;;8.50;;
78891;SDS011;68368;51.728;5.248;2023-04-19T04:00:01;12.70;;;7.90;;
78891;SDS011;68368;51.728;5.248;2023-04-19T04:02:06;12.40;;;7.30;;
78891;SDS011;68368;51.728;5.248;2023-04-19T04:04:11;14.40;;;8.00;;
78891;SDS011;68368;51.728;5.248;2023-04-19T04:06:17;12.60;;;8.50;;
78891;SDS011;68368;51.728;5.248;2023-04-19T04:08:21;11.20;;;8.40;;
78891;SDS011;68368;51.728;5.248;2023-04-19T04:10:27;10.70;;;7.70;;
78891;SDS011;68368;51.728;5.248;2023-04-19T04:12:33;11.90;;;8.00;;
78891;SDS011;68368;51.728;5.248;2023-04-19T04:14:38;12.70;;;8.10;;
78891;SDS011;68368;51.728;5.248;2023-04-19T04:16:42;11.70;;;7.90;;
78891;SDS011;68368;51.728;5.248;2023-04-19T04:18:45;10.40;;;7.10;;
78891;SDS011;68368;51.728;5.248;2023-04-19T04:20:49;11.30;;;7.40;;
78891;SDS011;68368;51.728;5.248;2023-04-19T04:22:53;10.80;;;8.20;;
78891;SDS011;68368;51.728;5.248;2023-04-19T04:25:02;11.60;;;8.30;;
78891;SDS011;68368;51.728;5.248;2023-04-19T04:27:07;13.70;;;9.00;;
78891;SDS011;68368;51.728;5.248;2023-04-19T04:29:10;12.50;;;7.40;;
78891;SDS011;68368;51.728;5.248;2023-04-19T04:33:31;10.80;;;7.30;;
78891;SDS011;68368;51.728;5.248;2023-04-19T04:35:37;9.80;;;7.20;;
78891;SDS011;68368;51.728;5.248;2023-04-19T04:37:40;11.30;;;7.60;;
78891;SDS011;68368;51.728;5.248;2023-04-19T04:40:02;12.80;;;8.00;;
78891;SDS011;68368;51.728;5.248;2023-04-19T04:42:08;10.50;;;7.30;;
78891;SDS011;68368;51.728;5.248;2023-04-19T04:44:12;11.10;;;7.30;;
78891;SDS011;68368;51.728;5.248;2023-04-19T04:46:16;11.60;;;8.00;;
78891;SDS011;68368;51.728;5.248;2023-04-19T04:48:19;11.20;;;7.30;;
78891;SDS011;68368;51.728;5.248;2023-04-19T04:50:24;13.80;;;9.00;;
78891;SDS011;68368;51.728;5.248;2023-04-19T04:52:27;11.10;;;8.00;;
78891;SDS011;68368;51.728;5.248;2023-04-19T04:54:30;11.20;;;7.50;;
78891;SDS011;68368;51.728;5.248;2023-04-19T04:56:33;11.40;;;7.60;;
78891;SDS011;68368;51.728;5.248;2023-04-19T04:58:37;12.30;;;7.00;;
78891;SDS011;68368;51.728;5.248;2023-04-19T05:00:41;11.10;;;6.80;;
78891;SDS011;68368;51.728;5.248;2023-04-19T05:02:45;10.30;;;7.00;;
78891;SDS011;68368;51.728;5.248;2023-04-19T05:04:49;9.80;;;6.60;;
78891;SDS011;68368;51.728;5.248;2023-04-19T05:06:54;10.60;;;6.70;;
78891;SDS011;68368;51.728;5.248;2023-04-19T05:08:59;8.70;;;6.10;;
78891;SDS011;68368;51.728;5.248;2023-04-19T05:11:03;11.70;;;6.70;;
78891;SDS011;68368;51.728;5.248;2023-04-19T05:13:06;9.40;;;6.90;;
78891;SDS011;68368;51.728;5.248;2023-04-19T05:15:12;10.60;;;6.70;;
78891;SDS011;68368;51.728;5.248;2023-04-19T05:17:15;9.50;;;6.10;;
78891;SDS011;68368;51.728;5.248;2023-04-19T05:19:19;10.80;;;6.40;;
78891;SDS011;68368;51.728;5.248;2023-04-19T05:21:24;9.00;;;6.40;;
78891;SDS011;68368;51.728;5.248;2023-04-19T05:23:33;10.30;;;6.30;;
78891;SDS011;68368;51.728;5.248;2023-04-19T05:25:44;9.40;;;6.30;;
78891;SDS011;68368;51.728;5.248;2023-04-19T05:27:50;10.90;;;6.40;;
78891;SDS011;68368;51.728;5.248;2023-04-19T05:29:54;8.60;;;6.30;;
78891;SDS011;68368;51.728;5.248;2023-04-19T05:31:57;8.50;;;6.60;;
78891;SDS011;68368;51.728;5.248;2023-04-19T05:34:01;8.40;;;6.50;;
78891;SDS011;68368;51.728;5.248;2023-04-19T05:36:05;10.30;;;6.30;;
78891;SDS011;68368;51.728;5.248;2023-04-19T05:38:09;10.10;;;6.80;;
78891;SDS011;68368;51.728;5.248;2023-04-19T05:40:16;9.60;;;5.90;;
78891;SDS011;68368;51.728;5.248;2023-04-19T05:42:19;8.30;;;5.60;;
78891;SDS011;68368;51.728;5.248;2023-04-19T05:44:23;7.90;;;5.70;;
78891;SDS011;68368;51.728;5.248;2023-04-19T05:46:26;7.30;;;5.60;;
78891;SDS011;68368;51.728;5.248;2023-04-19T05:48:29;7.30;;;5.40;;
78891;SDS011;68368;51.728;5.248;2023-04-19T05:50:32;8.40;;;5.40;;
78891;SDS011;68368;51.728;5.248;2023-04-19T05:52:38;8.20;;;5.70;;
78891;SDS011;68368;51.728;5.248;2023-04-19T05:54:41;7.70;;;5.40;;
78891;SDS011;68368;51.728;5.248;2023-04-19T05:56:44;7.60;;;5.60;;
78891;SDS011;68368;51.728;5.248;2023-04-19T05:58:48;6.60;;;5.10;;
78891;SDS011;68368;51.728;5.248;2023-04-19T06:00:51;7.60;;;5.20;;
78891;SDS011;68368;51.728;5.248;2023-04-19T06:02:56;8.90;;;5.40;;
78891;SDS011;68368;51.728;5.248;2023-04-19T06:04:59;7.30;;;5.50;;
78891;SDS011;68368;51.728;5.248;2023-04-19T06:07:03;9.20;;;5.60;;
78891;SDS011;68368;51.728;5.248;2023-04-19T06:09:07;7.10;;;4.90;;
78891;SDS011;68368;51.728;5.248;2023-04-19T06:11:12;7.50;;;4.80;;
78891;SDS011;68368;51.728;5.248;2023-04-19T06:13:15;6.90;;;5.00;;
78891;SDS011;68368;51.728;5.248;2023-04-19T06:15:19;6.30;;;5.30;;
78891;SDS011;68368;51.728;5.248;2023-04-19T06:17:25;7.10;;;5.30;;
78891;SDS011;68368;51.728;5.248;2023-04-19T06:19:29;5.50;;;4.80;;
78891;SDS011;68368;51.728;5.248;2023-04-19T06:23:37;6.40;;;4.80;;
78891;SDS011;68368;51.728;5.248;2023-04-19T06:25:41;7.10;;;4.90;;
78891;SDS011;68368;51.728;5.248;2023-04-19T06:27:53;6.90;;;4.80;;
78891;SDS011;68368;51.728;5.248;2023-04-19T06:29:57;6.20;;;5.20;;
78891;SDS011;68368;51.728;5.248;2023-04-19T06:32:00;5.70;;;4.60;;
78891;SDS011;68368;51.728;5.248;2023-04-19T06:34:04;7.90;;;5.40;;
78891;SDS011;68368;51.728;5.248;2023-04-19T06:36:13;7.30;;;5.10;;
78891;SDS011;68368;51.728;5.248;2023-04-19T06:38:24;6.60;;;4.60;;
78891;SDS011;68368;51.728;5.248;2023-04-19T06:40:27;6.80;;;4.90;;
78891;SDS011;68368;51.728;5.248;2023-04-19T06:42:34;5.20;;;4.70;;
78891;SDS011;68368;51.728;5.248;2023-04-19T06:44:38;6.80;;;4.60;;
78891;SDS011;68368;51.728;5.248;2023-04-19T06:46:43;7.20;;;5.00;;
78891;SDS011;68368;51.728;5.248;2023-04-19T06:48:46;8.00;;;5.10;;
78891;SDS011;68368;51.728;5.248;2023-04-19T06:50:50;6.40;;;5.00;;
78891;SDS011;68368;51.728;5.248;2023-04-19T06:52:53;5.90;;;4.90;;
78891;SDS011;68368;51.728;5.248;2023-04-19T06:54:57;7.20;;;5.10;;
78891;SDS011;68368;51.728;5.248;2023-04-19T06:57:01;7.60;;;5.10;;
78891;SDS011;68368;51.728;5.248;2023-04-19T06:59:06;6.00;;;4.90;;
78891;SDS011;68368;51.728;5.248;2023-04-19T07:01:11;5.60;;;4.50;;
78891;SDS011;68368;51.728;5.248;2023-04-19T07:03:14;6.20;;;4.90;;
78891;SDS011;68368;51.728;5.248;2023-04-19T07:05:18;6.10;;;5.10;;
78891;SDS011;68368;51.728;5.248;2023-04-19T07:07:25;7.60;;;5.00;;
78891;SDS011;68368;51.728;5.248;2023-04-19T07:09:28;8.50;;;5.20;;
78891;SDS011;68368;51.728;5.248;2023-04-19T07:11:34;6.20;;;4.80;;
78891;SDS011;68368;51.728;5.248;2023-04-19T07:13:38;10.10;;;5.10;;
78891;SDS011;68368;51.728;5.248;2023-04-19T07:15:41;7.30;;;5.10;;
78891;SDS011;68368;51.728;5.248;2023-04-19T07:17:44;6.80;;;4.90;;
78891;SDS011;68368;51.728;5.248;2023-04-19T07:19:51;7.60;;;4.90;;
78891;SDS011;68368;51.728;5.248;2023-04-19T07:21:54;6.00;;;4.90;;
78891;SDS011;68368;51.728;5.248;2023-04-19T07:24:00;6.50;;;4.90;;
78891;SDS011;68368;51.728;5.248;2023-04-19T07:26:05;6.20;;;4.70;;
78891;SDS011;68368;51.728;5.248;2023-04-19T07:28:09;5.90;;;4.80;;
78891;SDS011;68368;51.728;5.248;2023-04-19T07:30:13;6.50;;;5.10;;
78891;SDS011;68368;51.728;5.248;2023-04-19T07:32:19;6.50;;;4.80;;
78891;SDS011;68368;51.728;5.248;2023-04-19T07:34:22;7.50;;;5.00;;
78891;SDS011;68368;51.728;5.248;2023-04-19T07:36:26;6.20;;;4.80;;
78891;SDS011;68368;51.728;5.248;2023-04-19T07:38:29;7.10;;;4.90;;
78891;SDS011;68368;51.728;5.248;2023-04-19T07:40:35;5.10;;;4.50;;
78891;SDS011;68368;51.728;5.248;2023-04-19T07:42:38;7.60;;;5.30;;
78891;SDS011;68368;51.728;5.248;2023-04-19T07:44:43;8.10;;;5.10;;
78891;SDS011;68368;51.728;5.248;2023-04-19T07:46:49;6.40;;;4.60;;
78891;SDS011;68368;51.728;5.248;2023-04-19T07:48:53;7.40;;;5.10;;
78891;SDS011;68368;51.728;5.248;2023-04-19T07:51:05;6.90;;;4.60;;
78891;SDS011;68368;51.728;5.248;2023-04-19T07:53:10;7.10;;;5.00;;
78891;SDS011;68368;51.728;5.248;2023-04-19T07:55:14;7.70;;;5.40;;
78891;SDS011;68368;51.728;5.248;2023-04-19T07:57:19;8.50;;;4.80;;
78891;SDS011;68368;51.728;5.248;2023-04-19T07:59:24;7.70;;;5.10;;
78891;SDS011;68368;51.728;5.248;2023-04-19T08:01:32;7.40;;;4.40;;
78891;SDS011;68368;51.728;5.248;2023-04-19T08:03:40;6.70;;;5.00;;
78891;SDS011;68368;51.728;5.248;2023-04-19T08:05:43;6.40;;;4.80;;
78891;SDS011;68368;51.728;5.248;2023-04-19T08:07:49;7.60;;;5.20;;
78891;SDS011;68368;51.728;5.248;2023-04-19T08:09:55;6.80;;;4.70;;
78891;SDS011;68368;51.728;5.248;2023-04-19T08:11:58;6.30;;;5.00;;
78891;SDS011;68368;51.728;5.248;2023-04-19T08:14:03;7.30;;;4.80;;
78891;SDS011;68368;51.728;5.248;2023-04-19T08:16:07;9.50;;;4.90;;
78891;SDS011;68368;51.728;5.248;2023-04-19T08:18:11;6.80;;;4.80;;
78891;SDS011;68368;51.728;5.248;2023-04-19T08:20:14;8.00;;;4.40;;
78891;SDS011;68368;51.728;5.248;2023-04-19T08:22:20;7.10;;;4.70;;
78891;SDS011;68368;51.728;5.248;2023-04-19T08:24:26;6.60;;;4.10;;
78891;SDS011;68368;51.728;5.248;2023-04-19T08:26:32;6.20;;;4.60;;
78891;SDS011;68368;51.728;5.248;2023-04-19T08:28:35;5.90;;;4.20;;
78891;SDS011;68368;51.728;5.248;2023-04-19T08:30:40;5.70;;;4.00;;
78891;SDS011;68368;51.728;5.248;2023-04-19T08:32:43;9.50;;;4.80;;
78891;SDS011;68368;51.728;5.248;2023-04-19T08:34:47;5.40;;;4.40;;
78891;SDS011;68368;51.728;5.248;2023-04-19T08:36:50;4.70;;;3.50;;
78891;SDS011;68368;51.728;5.248;2023-04-19T08:38:56;5.80;;;4.00;;
78891;SDS011;68368;51.728;5.248;2023-04-19T08:40:59;5.80;;;3.90;;
78891;SDS011;68368;51.728;5.248;2023-04-19T08:43:05;6.40;;;4.10;;
78891;SDS011;68368;51.728;5.248;2023-04-19T08:45:09;5.50;;;3.90;;
78891;SDS011;68368;51.728;5.248;2023-04-19T08:47:16;5.90;;;3.80;;
78891;SDS011;68368;51.728;5.248;2023-04-19T08:49:19;5.30;;;3.60;;
78891;SDS011;68368;51.728;5.248;2023-04-19T08:51:23;6.80;;;3.90;;
78891;SDS011;68368;51.728;5.248;2023-04-19T08:53:28;8.30;;;3.10;;
78891;SDS011;68368;51.728;5.248;2023-04-19T08:57:38;5.00;;;3.40;;
78891;SDS011;68368;51.728;5.248;2023-04-19T08:59:42;6.40;;;3.80;;
78891;SDS011;68368;51.728;5.248;2023-04-19T09:01:45;4.70;;;3.10;;
78891;SDS011;68368;51.728;5.248;2023-04-19T09:03:48;5.10;;;3.50;;
78891;SDS011;68368;51.728;5.248;2023-04-19T09:05:52;6.10;;;3.50;;
78891;SDS011;68368;51.728;5.248;2023-04-19T09:08:02;7.00;;;3.40;;
78891;SDS011;68368;51.728;5.248;2023-04-19T09:10:27;8.90;;;3.60;;
78891;SDS011;68368;51.728;5.248;2023-04-19T09:12:32;5.80;;;3.40;;
78891;SDS011;68368;51.728;5.248;2023-04-19T09:14:39;6.20;;;3.80;;
78891;SDS011;68368;51.728;5.248;2023-04-19T09:16:49;6.20;;;3.40;;
78891;SDS011;68368;51.728;5.248;2023-04-19T09:18:55;5.50;;;3.10;;
78891;SDS011;68368;51.728;5.248;2023-04-19T09:20:59;4.60;;;3.10;;
78891;SDS011;68368;51.728;5.248;2023-04-19T09:23:06;4.80;;;3.20;;
78891;SDS011;68368;51.728;5.248;2023-04-19T09:25:22;5.20;;;3.10;;
78891;SDS011;68368;51.728;5.248;2023-04-19T09:27:30;4.80;;;3.50;;
78891;SDS011;68368;51.728;5.248;2023-04-19T09:29:35;8.00;;;3.40;;
78891;SDS011;68368;51.728;5.248;2023-04-19T09:31:39;8.40;;;3.30;;
78891;SDS011;68368;51.728;5.248;2023-04-19T09:34:08;6.60;;;3.20;;
78891;SDS011;68368;51.728;5.248;2023-04-19T09:36:25;6.80;;;3.40;;
78891;SDS011;68368;51.728;5.248;2023-04-19T09:38:29;5.70;;;3.60;;
78891;SDS011;68368;51.728;5.248;2023-04-19T09:40:46;5.60;;;3.70;;
78891;SDS011;68368;51.728;5.248;2023-04-19T09:42:49;5.10;;;3.40;;
78891;SDS011;68368;51.728;5.248;2023-04-19T09:44:56;4.10;;;3.20;;
78891;SDS011;68368;51.728;5.248;2023-04-19T09:47:00;5.20;;;3.10;;
78891;SDS011;68368;51.728;5.248;2023-04-19T09:49:15;5.90;;;3.60;;
78891;SDS011;68368;51.728;5.248;2023-04-19T09:51:20;6.90;;;3.10;;
78891;SDS011;68368;51.728;5.248;2023-04-19T09:53:26;3.70;;;2.70;;
78891;SDS011;68368;51.728;5.248;2023-04-19T09:55:31;5.50;;;3.10;;
78891;SDS011;68368;51.728;5.248;2023-04-19T09:59:44;4.80;;;2.80;;
78891;SDS011;68368;51.728;5.248;2023-04-19T10:01:51;4.60;;;2.90;;
78891;SDS011;68368;51.728;5.248;2023-04-19T10:03:56;3.90;;;2.30;;
78891;SDS011;68368;51.728;5.248;2023-04-19T10:06:00;6.20;;;2.90;;
78891;SDS011;68368;51.728;5.248;2023-04-19T10:08:05;7.90;;;2.70;;
78891;SDS011;68368;51.728;5.248;2023-04-19T10:10:09;4.40;;;2.40;;
78891;SDS011;68368;51.728;5.248;2023-04-19T10:12:16;3.90;;;2.20;;
78891;SDS011;68368;51.728;5.248;2023-04-19T10:14:21;5.70;;;2.20;;
78891;SDS011;68368;51.728;5.248;2023-04-19T10:16:36;4.10;;;2.00;;
78891;SDS011;68368;51.728;5.248;2023-04-19T10:18:42;4.10;;;2.10;;
78891;SDS011;68368;51.728;5.248;2023-04-19T10:20:50;5.00;;;2.30;;
78891;SDS011;68368;51.728;5.248;2023-04-19T10:22:59;5.70;;;1.90;;
78891;SDS011;68368;51.728;5.248;2023-04-19T10:25:09;3.60;;;2.10;;
78891;SDS011;68368;51.728;5.248;2023-04-19T10:27:14;4.50;;;2.10;;
78891;SDS011;68368;51.728;5.248;2023-04-19T10:32:02;3.20;;;1.50;;
78891;SDS011;68368;51.728;5.248;2023-04-19T10:34:07;5.00;;;1.80;;
78891;SDS011;68368;51.728;5.248;2023-04-19T10:36:14;3.60;;;1.90;;
78891;SDS011;68368;51.728;5.248;2023-04-19T10:38:18;3.90;;;2.20;;
78891;SDS011;68368;51.728;5.248;2023-04-19T10:40:58;2.50;;;1.70;;
78891;SDS011;68368;51.728;5.248;2023-04-19T10:45:34;3.30;;;2.00;;
78891;SDS011;68368;51.728;5.248;2023-04-19T10:47:44;2.70;;;1.80;;
78891;SDS011;68368;51.728;5.248;2023-04-19T10:49:49;4.40;;;1.90;;
78891;SDS011;68368;51.728;5.248;2023-04-19T10:51:52;3.10;;;1.90;;
78891;SDS011;68368;51.728;5.248;2023-04-19T10:53:57;4.20;;;2.30;;
78891;SDS011;68368;51.728;5.248;2023-04-19T10:56:01;3.00;;;1.70;;
78891;SDS011;68368;51.728;5.248;2023-04-19T10:58:05;2.70;;;2.00;;
78891;SDS011;68368;51.728;5.248;2023-04-19T11:00:21;3.40;;;1.70;;
78891;SDS011;68368;51.728;5.248;2023-04-19T11:02:31;2.90;;;1.90;;
78891;SDS011;68368;51.728;5.248;2023-04-19T11:07:03;3.20;;;2.00;;
78891;SDS011;68368;51.728;5.248;2023-04-19T11:09:07;2.60;;;1.70;;
78891;SDS011;68368;51.728;5.248;2023-04-19T11:11:11;2.90;;;1.90;;
78891;SDS011;68368;51.728;5.248;2023-04-19T11:13:16;2.50;;;2.00;;
78891;SDS011;68368;51.728;5.248;2023-04-19T11:15:19;4.60;;;2.10;;
78891;SDS011;68368;51.728;5.248;2023-04-19T11:17:27;4.20;;;2.10;;
78891;SDS011;68368;51.728;5.248;2023-04-19T11:21:33;4.30;;;2.10;;
78891;SDS011;68368;51.728;5.248;2023-04-19T11:23:41;4.10;;;2.10;;
78891;SDS011;68368;51.728;5.248;2023-04-19T11:25:46;3.90;;;2.10;;
78891;SDS011;68368;51.728;5.248;2023-04-19T11:27:55;2.80;;;1.90;;
78891;SDS011;68368;51.728;5.248;2023-04-19T11:30:04;6.10;;;2.10;;
78891;SDS011;68368;51.728;5.248;2023-04-19T11:32:09;4.20;;;1.90;;
78891;SDS011;68368;51.728;5.248;2023-04-19T11:34:13;5.40;;;2.00;;
78891;SDS011;68368;51.728;5.248;2023-04-19T11:36:17;2.60;;;2.00;;
78891;SDS011;68368;51.728;5.248;2023-04-19T11:38:21;4.40;;;1.90;;
78891;SDS011;68368;51.728;5.248;2023-04-19T11:40:27;3.50;;;1.70;;
78891;SDS011;68368;51.728;5.248;2023-04-19T11:42:31;3.40;;;1.90;;
78891;SDS011;68368;51.728;5.248;2023-04-19T11:44:35;2.80;;;2.00;;
78891;SDS011;68368;51.728;5.248;2023-04-19T11:46:39;3.00;;;1.90;;
78891;SDS011;68368;51.728;5.248;2023-04-19T11:48:50;3.60;;;2.00;;
78891;SDS011;68368;51.728;5.248;2023-04-19T11:50:56;2.90;;;1.90;;
78891;SDS011;68368;51.728;5.248;2023-04-19T11:53:03;4.20;;;1.60;;
78891;SDS011;68368;51.728;5.248;2023-04-19T11:55:19;4.30;;;2.10;;
78891;SDS011;68368;51.728;5.248;2023-04-19T11:57:29;4.40;;;1.70;;
78891;SDS011;68368;51.728;5.248;2023-04-19T11:59:33;5.00;;;1.80;;
78891;SDS011;68368;51.728;5.248;2023-04-19T12:01:38;4.20;;;2.20;;
78891;SDS011;68368;51.728;5.248;2023-04-19T12:03:45;3.70;;;2.00;;
78891;SDS011;68368;51.728;5.248;2023-04-19T12:05:55;4.90;;;2.10;;
78891;SDS011;68368;51.728;5.248;2023-04-19T12:08:03;3.00;;;2.10;;
78891;SDS011;68368;51.728;5.248;2023-04-19T12:10:11;3.20;;;2.20;;
78891;SDS011;68368;51.728;5.248;2023-04-19T12:14:36;4.40;;;1.90;;
78891;SDS011;68368;51.728;5.248;2023-04-19T12:16:40;3.40;;;2.50;;
78891;SDS011;68368;51.728;5.248;2023-04-19T12:18:46;5.00;;;2.10;;
78891;SDS011;68368;51.728;5.248;2023-04-19T12:20:53;4.80;;;2.30;;
78891;SDS011;68368;51.728;5.248;2023-04-19T12:22:57;4.20;;;2.30;;
78891;SDS011;68368;51.728;5.248;2023-04-19T12:25:02;3.60;;;2.00;;
78891;SDS011;68368;51.728;5.248;2023-04-19T12:27:07;5.30;;;2.50;;
78891;SDS011;68368;51.728;5.248;2023-04-19T12:29:10;5.00;;;2.20;;
78891;SDS011;68368;51.728;5.248;2023-04-19T12:31:14;4.30;;;2.30;;
78891;SDS011;68368;51.728;5.248;2023-04-19T12:33:18;3.00;;;2.20;;
78891;SDS011;68368;51.728;5.248;2023-04-19T12:35:24;3.10;;;2.40;;
78891;SDS011;68368;51.728;5.248;2023-04-19T12:37:28;3.20;;;2.40;;
78891;SDS011;68368;51.728;5.248;2023-04-19T12:39:32;3.50;;;2.30;;
78891;SDS011;68368;51.728;5.248;2023-04-19T12:41:35;5.20;;;2.10;;
78891;SDS011;68368;51.728;5.248;2023-04-19T12:43:42;3.10;;;2.10;;
78891;SDS011;68368;51.728;5.248;2023-04-19T12:45:49;3.60;;;2.30;;
78891;SDS011;68368;51.728;5.248;2023-04-19T12:47:54;4.70;;;2.20;;
78891;SDS011;68368;51.728;5.248;2023-04-19T12:49:58;4.10;;;2.10;;
78891;SDS011;68368;51.728;5.248;2023-04-19T12:52:01;3.50;;;1.90;;